Time;durP1;ratioP1;P1;durP2;ratioP2;P2;SDS_P1;SDS_P2;PMS_P1;PMS_P2;Temp;Humidity;BMP_temperature;BMP_pressure;BME280_temperature;BME280_humidity;BME280_pressure;Samples;Min_cycle;Max_cycle;Signal;HPM_P1;HPM_P2
2022/01/02 00:08:49;;;;;;;2.90;2.50;;;9.60;99.90;;;;;;7353842;19;20344;-92
2022/01/02 00:14:25;;;;;;;2.28;2.17;;;9.60;99.90;;;;;;7337318;19;20328;-91
2022/01/02 00:16:56;;;;;;;3.50;2.50;;;9.50;99.90;;;;;;7289114;19;2004255;-91
2022/01/02 00:19:29;;;;;;;2.70;2.42;;;9.50;99.90;;;;;;7397058;19;20349;-92
2022/01/02 00:22:00;;;;;;;2.47;2.28;;;9.60;99.90;;;;;;7394366;19;20336;-92
2022/01/02 00:24:32;;;;;;;4.20;2.25;;;9.60;99.90;;;;;;7410902;19;20344;-91
2022/01/02 00:27:05;;;;;;;2.30;2.10;;;9.50;99.90;;;;;;7431408;19;20321;-91
2022/01/02 00:29:34;;;;;;;1.73;1.63;;;9.40;99.90;;;;;;7394777;19;20308;-91
2022/01/02 00:32:02;;;;;;;2.20;2.00;;;9.40;99.90;;;;;;7411208;19;20340;-92
2022/01/02 00:34:28;;;;;;;3.47;2.20;;;9.30;99.90;;;;;;7387569;19;20345;-92
2022/01/02 00:36:57;;;;;;;3.28;2.22;;;9.30;99.90;;;;;;7433112;19;20340;-92
2022/01/02 00:39:25;;;;;;;4.70;2.60;;;9.30;99.90;;;;;;7390707;19;20325;-90
2022/01/02 01:00:16;;;;;;;2.22;2.03;;;9.00;99.90;;;;;;7378774;19;20324;-92
2022/01/02 01:02:53;;;;;;;1.95;1.63;;;9.00;99.90;;;;;;7432441;19;20347;-94
2022/01/02 01:05:31;;;;;;;2.15;1.95;;;8.90;99.90;;;;;;7405334;19;20341;-90
2022/01/02 01:08:03;;;;;;;2.42;2.22;;;8.90;99.90;;;;;;7398845;19;20352;-92
2022/01/02 08:59:48;;;;;;;2.50;2.30;;;8.80;99.90;;;;;;7338885;19;20323;-78
2022/01/02 09:03:34;;;;;;;2.22;2.03;;;8.80;99.90;;;;;;7209967;19;2004528;-80
2022/01/02 09:36:34;;;;;;;3.47;2.83;;;9.60;99.90;;;;;;7292223;19;21282;-84
2022/01/02 10:34:00;;;;;;;1.70;1.60;;;10.60;99.90;;;;;;7309685;19;20345;-92
2022/01/02 10:36:40;;;;;;;2.55;2.33;;;10.70;99.90;;;;;;7406883;19;20297;-91
2022/01/02 10:39:13;;;;;;;2.00;1.90;;;10.80;99.90;;;;;;7319762;19;2004232;-92
2022/01/02 10:41:45;;;;;;;2.90;2.10;;;10.80;99.90;;;;;;7402548;19;20316;-91
2022/01/02 10:44:20;;;;;;;2.20;2.05;;;10.80;99.90;;;;;;7402859;19;20289;-90
2022/01/02 10:55:24;;;;;;;2.92;2.50;;;11.10;99.90;;;;;;7433002;19;20356;-91
2022/01/02 10:57:52;;;;;;;2.17;1.95;;;11.10;99.90;;;;;;7434518;19;20348;-93
2022/01/02 11:00:40;;;;;;;3.95;2.30;;;11.20;99.90;;;;;;7431739;19;20377;-90
2022/01/02 11:03:09;;;;;;;4.47;2.95;;;11.20;99.90;;;;;;7404687;19;20305;-91
2022/01/02 11:05:36;;;;;;;2.40;2.20;;;11.30;99.90;;;;;;7426812;19;20360;-89
2022/01/02 11:08:05;;;;;;;3.90;2.78;;;11.30;99.90;;;;;;7422172;19;20784;-91
2022/01/02 11:10:35;;;;;;;2.40;2.20;;;11.40;99.90;;;;;;7424033;19;21368;-93
2022/01/02 11:13:03;;;;;;;2.05;1.92;;;11.40;99.90;;;;;;7420944;19;20321;-92
2022/01/02 11:15:32;;;;;;;3.57;2.47;;;11.40;99.90;;;;;;7419844;19;20365;-90
2022/01/02 11:17:57;;;;;;;3.00;2.42;;;11.30;99.90;;;;;;7399481;19;20356;-90
2022/01/02 11:20:31;;;;;;;2.47;2.17;;;11.30;99.90;;;;;;7421905;19;20337;-89
2022/01/02 11:41:17;;;;;;;2.43;2.23;;;11.30;99.90;;;;;;7423183;19;20393;-92
2022/01/02 11:49:44;;;;;;;1.90;1.80;;;11.30;99.90;;;;;;7418886;19;20363;-92
2022/01/02 11:52:22;;;;;;;2.50;2.15;;;11.30;99.90;;;;;;7415534;19;20344;-91
2022/01/02 11:54:53;;;;;;;4.57;3.15;;;11.30;99.90;;;;;;7417918;19;20352;-91
2022/01/02 11:57:23;;;;;;;4.18;2.90;;;11.20;99.90;;;;;;7417199;19;20392;-89
2022/01/02 11:59:48;;;;;;;2.58;2.35;;;11.20;99.90;;;;;;7413939;19;20327;-90
2022/01/02 12:02:26;;;;;;;2.07;1.87;;;11.20;99.90;;;;;;7416969;19;20329;-87
2022/01/02 12:04:58;;;;;;;1.83;1.65;;;11.10;99.90;;;;;;7412799;19;20336;-90
2022/01/02 12:10:16;;;;;;;1.98;1.63;;;11.10;99.90;;;;;;7415787;19;20372;-87
2022/01/02 12:13:00;;;;;;;3.57;2.27;;;10.70;99.90;;;;;;7416226;19;20352;-90
2022/01/02 12:15:35;;;;;;;2.00;1.70;;;10.90;99.90;;;;;;7415423;19;20429;-89
2022/01/02 12:18:39;;;;;;;1.97;1.70;;;10.90;99.90;;;;;;7419565;19;20343;-91
2022/01/02 12:21:08;;;;;;;1.85;1.73;;;10.80;99.90;;;;;;7315110;19;2004385;-90
2022/01/02 12:23:34;;;;;;;2.10;1.90;;;10.70;99.90;;;;;;7420551;19;20324;-90
2022/01/02 12:26:10;;;;;;;3.13;2.15;;;10.80;99.90;;;;;;7420211;19;20345;-91
2022/01/02 12:28:43;;;;;;;4.97;2.47;;;10.80;99.90;;;;;;7417859;19;20344;-90
2022/01/02 12:31:11;;;;;;;7.57;5.18;;;10.80;99.90;;;;;;7420686;19;20344;-90
2022/01/02 12:33:37;;;;;;;9.52;7.30;;;10.70;99.90;;;;;;7420505;19;20375;-92
2022/01/02 12:36:16;;;;;;;13.45;8.43;;;10.80;99.90;;;;;;7402665;19;21478;-87
2022/01/02 12:38:52;;;;;;;8.13;6.57;;;10.70;99.90;;;;;;7397699;19;20324;-90
2022/01/02 12:41:20;;;;;;;3.28;2.65;;;10.70;99.90;;;;;;7383887;19;20325;-90
2022/01/02 12:50:06;;;;;;;2.17;1.98;;;10.60;99.90;;;;;;7409568;19;20320;-92
2022/01/02 12:58:44;;;;;;;2.78;2.40;;;10.60;99.90;;;;;;7419296;19;20319;-89
2022/01/02 13:03:46;;;;;;;2.70;2.28;;;10.60;99.90;;;;;;7369855;19;20332;-92
2022/01/02 13:06:19;;;;;;;2.03;1.80;;;10.60;99.90;;;;;;7414821;19;20373;-92
2022/01/02 13:08:47;;;;;;;1.60;1.50;;;10.70;99.90;;;;;;7413828;19;20372;-93
2022/01/02 13:11:16;;;;;;;4.25;3.53;;;10.70;99.90;;;;;;7409976;19;20332;-90
2022/01/02 13:13:46;;;;;;;10.20;4.00;;;10.70;99.90;;;;;;7407209;19;20353;-91
2022/01/02 13:16:12;;;;;;;3.13;2.42;;;10.70;99.90;;;;;;7411017;19;20347;-92
2022/01/02 13:18:38;;;;;;;1.60;1.50;;;10.70;99.90;;;;;;7418522;19;20312;-91
2022/01/02 13:21:06;;;;;;;2.00;1.80;;;10.70;99.90;;;;;;7423922;19;20325;-90
2022/01/02 13:23:32;;;;;;;1.80;1.70;;;10.80;99.90;;;;;;7423147;19;20369;-91
2022/01/02 13:25:58;;;;;;;2.25;2.00;;;10.70;99.90;;;;;;7400621;19;20365;-91
2022/01/02 13:28:26;;;;;;;2.10;1.63;;;10.70;99.90;;;;;;7417383;19;20349;-93
2022/01/02 13:30:58;;;;;;;2.58;2.10;;;10.70;99.90;;;;;;7397817;19;20323;-90
2022/01/02 13:33:33;;;;;;;2.65;1.85;;;10.70;99.90;;;;;;7417888;19;20316;-90
2022/01/02 13:36:13;;;;;;;3.37;2.30;;;10.70;99.90;;;;;;7321595;19;2004317;-92
2022/01/02 13:38:56;;;;;;;4.65;4.03;;;10.70;99.90;;;;;;7323990;19;2004200;-90
2022/01/02 13:41:23;;;;;;;2.80;2.60;;;10.70;99.90;;;;;;7319224;19;2004206;-90
2022/01/02 13:43:49;;;;;;;1.55;1.45;;;10.80;99.90;;;;;;7424835;19;20307;-88
2022/01/02 13:46:15;;;;;;;1.90;1.80;;;10.60;99.90;;;;;;7425261;19;20348;-91
2022/01/02 13:48:42;;;;;;;2.87;2.57;;;10.60;99.90;;;;;;7421768;19;20337;-92
2022/01/02 13:51:17;;;;;;;2.55;2.05;;;10.60;99.90;;;;;;7424420;19;20380;-88
2022/01/02 13:56:20;;;;;;;1.70;1.60;;;10.50;99.90;;;;;;7418818;19;20338;-90
2022/01/02 13:58:47;;;;;;;1.50;1.40;;;10.40;99.90;;;;;;7401636;19;20332;-91
2022/01/02 14:01:30;;;;;;;1.80;1.70;;;10.40;99.90;;;;;;7421145;19;20325;-90
2022/01/02 14:03:59;;;;;;;1.95;1.77;;;10.50;99.90;;;;;;7317049;19;2004103;-91
2022/01/02 14:06:29;;;;;;;1.60;1.50;;;10.50;99.90;;;;;;7421267;19;20322;-89
2022/01/02 14:08:55;;;;;;;2.13;1.60;;;10.50;99.90;;;;;;7421873;19;20404;-91
2022/01/02 14:11:27;;;;;;;1.60;1.50;;;10.60;99.90;;;;;;7421822;19;20598;-90
2022/01/02 14:14:14;;;;;;;1.85;1.60;;;10.60;99.90;;;;;;7422212;19;20365;-92
2022/01/02 14:17:13;;;;;;;1.40;1.33;;;10.60;99.90;;;;;;7423199;19;20364;-90
2022/01/02 14:19:47;;;;;;;2.08;1.45;;;10.60;99.90;;;;;;7320630;19;2004474;-91
2022/01/02 14:22:14;;;;;;;2.87;1.63;;;10.60;99.90;;;;;;7424581;19;20316;-92
2022/01/02 14:24:41;;;;;;;3.17;1.67;;;10.60;99.90;;;;;;7423158;19;20367;-91
2022/01/02 14:27:07;;;;;;;1.83;1.63;;;10.60;99.90;;;;;;7406180;19;20356;-92
2022/01/02 14:29:35;;;;;;;1.80;1.70;;;10.60;99.90;;;;;;7425040;19;20345;-89
2022/01/02 14:32:00;;;;;;;1.97;1.80;;;10.60;99.90;;;;;;7424188;19;20336;-90
2022/01/02 14:34:26;;;;;;;3.03;1.70;;;10.50;99.90;;;;;;7417210;19;20793;-90
2022/01/02 14:36:52;;;;;;;3.50;1.87;;;10.50;99.90;;;;;;7422039;19;20317;-91
2022/01/02 14:39:17;;;;;;;2.20;1.73;;;10.50;99.90;;;;;;7420628;19;20412;-88
2022/01/02 14:41:44;;;;;;;2.43;1.73;;;10.50;99.90;;;;;;7420181;19;20344;-91
2022/01/02 14:44:10;;;;;;;2.58;1.88;;;10.50;99.90;;;;;;7421233;19;20300;-86
2022/01/02 14:46:41;;;;;;;1.70;1.50;;;10.50;99.90;;;;;;7420965;19;20346;-92
2022/01/02 14:49:07;;;;;;;2.10;1.70;;;10.40;99.90;;;;;;7423036;19;20461;-90
2022/01/02 14:51:32;;;;;;;2.92;1.80;;;10.50;99.90;;;;;;7422994;19;20321;-89
2022/01/02 14:53:59;;;;;;;5.40;2.13;;;10.50;99.90;;;;;;7422881;19;20333;-92
2022/01/02 14:56:24;;;;;;;1.73;1.63;;;10.50;99.90;;;;;;7426112;19;20328;-92
2022/01/02 14:58:50;;;;;;;3.43;2.00;;;10.50;99.90;;;;;;7425020;19;20372;-90
2022/01/02 15:01:21;;;;;;;6.25;3.40;;;10.50;99.90;;;;;;7420756;19;20340;-92
2022/01/02 15:06:53;;;;;;;3.87;2.30;;;10.60;99.90;;;;;;7421927;19;20315;-93
2022/01/02 15:09:23;;;;;;;2.47;2.00;;;10.60;99.90;;;;;;7410943;19;20300;-90
2022/01/02 15:11:49;;;;;;;5.20;2.58;;;10.60;99.90;;;;;;7429843;19;20336;-92
2022/01/02 15:14:21;;;;;;;3.78;2.47;;;10.60;99.90;;;;;;7412119;19;20296;-92
2022/01/02 15:16:49;;;;;;;2.45;2.10;;;10.60;99.90;;;;;;7380056;19;20377;-92
2022/01/02 15:19:21;;;;;;;6.25;4.80;;;10.60;99.90;;;;;;7421490;19;20336;-91
2022/01/02 15:21:47;;;;;;;6.60;5.13;;;10.50;99.90;;;;;;7425027;19;20353;-91
2022/01/02 15:24:13;;;;;;;4.03;2.63;;;10.50;99.90;;;;;;7417861;19;20328;-92
2022/01/02 15:26:39;;;;;;;2.03;1.87;;;10.40;99.90;;;;;;7208723;19;4079852;-91
2022/01/02 15:29:06;;;;;;;16.20;8.95;;;10.50;99.90;;;;;;7422046;19;20346;-92
2022/01/02 15:31:32;;;;;;;6.03;3.87;;;10.50;99.90;;;;;;7426670;19;20332;-92
2022/01/02 15:33:58;;;;;;;4.05;3.03;;;10.50;99.90;;;;;;7424482;19;20355;-92
2022/01/02 15:36:24;;;;;;;2.45;2.08;;;10.60;99.90;;;;;;7422430;19;20332;-93
2022/01/02 15:38:50;;;;;;;2.40;2.20;;;10.50;99.90;;;;;;7422608;19;20373;-90
2022/01/02 15:41:17;;;;;;;2.58;2.03;;;10.60;99.90;;;;;;7420961;19;20341;-91
2022/01/02 15:46:38;;;;;;;2.95;2.28;;;10.60;99.90;;;;;;7413074;19;20293;-90
2022/01/02 15:49:03;;;;;;;3.73;2.70;;;10.70;99.90;;;;;;7418308;19;20340;-89
2022/01/02 15:51:29;;;;;;;3.22;2.70;;;10.80;99.90;;;;;;7421306;19;20340;-90
2022/01/02 15:53:55;;;;;;;2.97;2.67;;;10.70;99.90;;;;;;7418390;19;20336;-91
2022/01/02 15:56:21;;;;;;;4.55;2.80;;;10.70;99.90;;;;;;7419895;19;20718;-91
2022/01/02 15:58:47;;;;;;;3.88;2.60;;;10.70;99.90;;;;;;7422425;19;20308;-91
2022/01/02 16:01:12;;;;;;;6.10;3.07;;;10.70;99.90;;;;;;7423087;19;20331;-91
2022/01/02 16:03:40;;;;;;;2.78;2.20;;;10.70;99.90;;;;;;7418440;19;20336;-90
2022/01/02 16:06:06;;;;;;;2.97;2.50;;;10.70;99.90;;;;;;7423655;19;20353;-88
2022/01/02 16:08:31;;;;;;;2.97;2.40;;;10.70;99.90;;;;;;7400218;19;20328;-90
2022/01/02 16:10:57;;;;;;;3.00;2.50;;;10.80;99.90;;;;;;7423995;19;20319;-91
2022/01/02 16:13:25;;;;;;;2.55;2.15;;;10.80;99.90;;;;;;7420672;19;20325;-92
2022/01/02 16:15:51;;;;;;;3.77;2.93;;;10.60;99.90;;;;;;7407881;19;20356;-90
2022/01/02 16:18:17;;;;;;;2.50;2.30;;;10.80;99.90;;;;;;7424078;19;20317;-91
2022/01/02 16:20:45;;;;;;;5.07;2.70;;;10.80;99.90;;;;;;7421970;19;20340;-91
2022/01/02 16:23:11;;;;;;;4.53;2.80;;;10.90;99.90;;;;;;7419716;19;20332;-91
2022/01/02 16:25:39;;;;;;;2.72;2.30;;;10.80;99.90;;;;;;7414540;19;20339;-90
2022/01/02 16:28:08;;;;;;;3.92;2.72;;;10.80;99.90;;;;;;7422530;19;20403;-90
2022/01/02 16:30:44;;;;;;;5.95;3.30;;;10.80;99.90;;;;;;7418558;19;20369;-91
2022/01/02 16:33:23;;;;;;;2.35;2.13;;;10.90;99.90;;;;;;7422823;19;20329;-90
2022/01/02 16:35:55;;;;;;;3.95;2.65;;;10.80;99.90;;;;;;7403040;19;20535;-91
2022/01/02 16:38:38;;;;;;;2.95;2.35;;;10.90;99.90;;;;;;7416094;19;20348;-89
2022/01/02 16:41:31;;;;;;;2.75;2.30;;;10.90;99.90;;;;;;7393127;19;20317;-90
2022/01/02 16:44:04;;;;;;;2.30;1.90;;;11.00;99.90;;;;;;7400654;19;20356;-91
2022/01/02 16:46:37;;;;;;;4.20;1.95;;;11.00;99.90;;;;;;7300791;19;2004356;-91
2022/01/02 16:49:05;;;;;;;2.13;1.83;;;11.10;99.90;;;;;;7385883;19;20321;-90
2022/01/02 16:51:30;;;;;;;3.00;1.90;;;11.10;99.90;;;;;;7421864;19;20328;-92
2022/01/02 16:54:05;;;;;;;2.37;1.80;;;11.20;99.90;;;;;;7415383;19;20312;-91
2022/01/02 16:56:34;;;;;;;2.27;1.90;;;11.10;99.90;;;;;;7305368;19;2004263;-90
2022/01/02 16:59:04;;;;;;;1.92;1.83;;;11.10;99.90;;;;;;7396770;19;20356;-91
2022/01/02 17:01:31;;;;;;;2.30;1.83;;;11.10;99.90;;;;;;7411936;19;20373;-92
2022/01/02 17:04:10;;;;;;;1.80;1.70;;;11.20;99.90;;;;;;7408491;19;20337;-89
2022/01/02 17:06:36;;;;;;;2.47;1.50;;;11.20;99.90;;;;;;7420205;19;20349;-93
2022/01/02 17:12:23;;;;;;;1.77;1.55;;;11.10;99.90;;;;;;7426264;19;20364;-90
2022/01/02 17:20:53;;;;;;;1.67;1.58;;;11.40;99.90;;;;;;7372769;19;20347;-90
2022/01/02 17:26:26;;;;;;;2.55;2.08;;;11.40;99.90;;;;;;7399535;19;20352;-93
2022/01/02 17:29:04;;;;;;;2.10;1.60;;;11.40;99.90;;;;;;7385619;19;20421;-89
2022/01/02 17:31:56;;;;;;;1.83;1.73;;;11.40;99.90;;;;;;7411448;19;20297;-91
2022/01/02 17:37:48;;;;;;;2.08;1.52;;;11.50;99.90;;;;;;7381580;19;20307;-90
2022/01/02 17:40:35;;;;;;;1.85;1.67;;;11.50;99.90;;;;;;7328683;19;2004243;-89
2022/01/02 17:43:07;;;;;;;1.90;1.70;;;11.50;99.90;;;;;;7281274;19;2004113;-91
2022/01/02 17:51:44;;;;;;;1.60;1.50;;;11.50;99.90;;;;;;7414415;19;20339;-93
2022/01/02 17:54:09;;;;;;;6.25;1.63;;;11.60;99.90;;;;;;7404809;19;20376;-91
2022/01/02 17:56:37;;;;;;;1.60;1.50;;;11.70;99.90;;;;;;7407404;19;20317;-86
2022/01/02 18:02:06;;;;;;;1.48;1.38;;;11.60;99.90;;;;;;7408664;19;20333;-91
2022/01/02 18:41:12;;;;;;;1.55;1.45;;;11.60;99.90;;;;;;7394489;19;20337;-88
2022/01/02 18:43:40;;;;;;;1.52;1.42;;;11.60;99.90;;;;;;7411545;19;20325;-91
2022/01/02 18:55:21;;;;;;;1.90;1.65;;;11.60;99.90;;;;;;7415586;19;20325;-90
2022/01/02 18:57:50;;;;;;;2.03;1.55;;;11.60;99.90;;;;;;7420752;19;20316;-91
2022/01/02 19:00:19;;;;;;;1.67;1.50;;;11.60;99.90;;;;;;7418887;19;20377;-89
2022/01/02 19:14:37;;;;;;;2.17;1.60;;;11.50;99.90;;;;;;7399693;19;20351;-91
2022/01/02 19:17:15;;;;;;;1.60;1.50;;;11.60;99.90;;;;;;7418543;19;20332;-88
2022/01/02 19:19:43;;;;;;;1.70;1.60;;;11.50;99.90;;;;;;7419446;19;20354;-89
2022/01/02 19:22:20;;;;;;;2.05;1.60;;;11.50;99.90;;;;;;7392579;19;20352;-91
2022/01/02 19:24:52;;;;;;;1.70;1.60;;;11.50;99.90;;;;;;7378477;19;20320;-88
2022/01/02 19:39:06;;;;;;;1.60;1.50;;;11.50;99.90;;;;;;7413283;19;20324;-91
2022/01/02 19:41:33;;;;;;;1.80;1.70;;;11.40;99.90;;;;;;7402509;19;20348;-89
2022/01/02 19:44:00;;;;;;;2.03;1.52;;;11.50;99.90;;;;;;7412577;19;20328;-89
2022/01/02 19:46:27;;;;;;;1.75;1.65;;;11.40;99.90;;;;;;7376992;19;20355;-92
2022/01/02 19:48:55;;;;;;;2.00;1.90;;;11.30;99.90;;;;;;7397481;19;20328;-93
2022/01/02 19:51:22;;;;;;;1.83;1.70;;;11.40;99.90;;;;;;7420004;19;20340;-91
2022/01/02 19:53:54;;;;;;;1.83;1.73;;;11.40;99.90;;;;;;7415388;19;20348;-92
2022/01/02 19:56:24;;;;;;;2.10;1.83;;;11.30;99.90;;;;;;7391008;19;20333;-88
2022/01/02 19:59:08;;;;;;;1.60;1.50;;;11.30;99.90;;;;;;7415689;19;20346;-90
2022/01/02 20:01:35;;;;;;;1.85;1.70;;;11.30;99.90;;;;;;7388659;19;20332;-90
2022/01/02 20:12:52;;;;;;;1.90;1.70;;;11.30;99.90;;;;;;7410757;19;20361;-91
2022/01/02 20:15:20;;;;;;;1.83;1.70;;;11.30;99.90;;;;;;7409190;19;20360;-90
2022/01/02 20:17:47;;;;;;;2.55;1.90;;;11.30;99.90;;;;;;7417123;19;20329;-90
2022/01/02 20:20:17;;;;;;;2.80;2.10;;;11.30;99.90;;;;;;7395021;19;20317;-91
2022/01/02 20:25:39;;;;;;;1.80;1.65;;;11.30;99.90;;;;;;7418766;19;20341;-90
2022/01/02 20:28:11;;;;;;;2.00;1.90;;;11.30;99.90;;;;;;7412172;19;20344;-91
2022/01/02 20:30:40;;;;;;;1.85;1.73;;;11.40;99.90;;;;;;7415479;19;20369;-89
2022/01/02 20:33:07;;;;;;;2.38;1.95;;;11.30;99.90;;;;;;7414927;19;20348;-90
2022/01/02 20:35:35;;;;;;;2.13;1.67;;;11.20;99.90;;;;;;7418655;19;20339;-91
2022/01/02 20:38:03;;;;;;;1.80;1.70;;;11.30;99.90;;;;;;7419590;19;20313;-93
2022/01/02 20:40:30;;;;;;;1.80;1.70;;;11.20;99.90;;;;;;7393285;19;20316;-89
2022/01/02 20:42:59;;;;;;;2.10;1.90;;;11.20;99.90;;;;;;7403709;19;20332;-91
2022/01/02 20:45:34;;;;;;;3.60;2.10;;;11.10;99.90;;;;;;7399707;19;20280;-90
2022/01/02 20:48:08;;;;;;;1.60;1.50;;;11.10;99.90;;;;;;7279729;19;2004320;-91
2022/01/02 20:50:36;;;;;;;1.67;1.58;;;11.10;99.90;;;;;;7403656;19;20337;-88
2022/01/02 20:53:11;;;;;;;1.70;1.60;;;11.00;99.90;;;;;;7401496;19;20369;-89
2022/01/02 20:55:37;;;;;;;2.00;1.77;;;11.00;99.90;;;;;;7424975;19;20336;-90
2022/01/02 20:58:03;;;;;;;2.17;1.88;;;10.90;99.90;;;;;;7424282;19;20324;-90
2022/01/02 21:00:30;;;;;;;1.90;1.70;;;10.80;99.90;;;;;;7398425;19;20380;-90
2022/01/02 21:02:57;;;;;;;2.65;1.92;;;10.90;99.90;;;;;;7401177;19;20340;-90
2022/01/02 21:05:23;;;;;;;1.65;1.55;;;10.80;99.90;;;;;;7423390;19;20396;-90
2022/01/02 21:07:50;;;;;;;4.63;1.90;;;10.90;99.90;;;;;;7425977;19;20395;-90
2022/01/02 21:13:20;;;;;;;2.70;1.60;;;10.70;99.90;;;;;;7407704;19;20310;-90
2022/01/02 21:15:56;;;;;;;1.92;1.67;;;10.70;99.90;;;;;;7424332;19;20325;-90
2022/01/02 21:18:21;;;;;;;3.80;2.17;;;10.60;99.90;;;;;;7413711;19;20324;-90
2022/01/02 21:20:50;;;;;;;2.05;1.80;;;10.60;99.90;;;;;;7425599;19;20348;-90
2022/01/02 21:23:17;;;;;;;2.20;1.57;;;10.80;99.90;;;;;;7423494;19;20296;-90
2022/01/02 21:25:43;;;;;;;1.48;1.38;;;10.70;99.90;;;;;;7403304;19;20475;-89
2022/01/02 21:28:15;;;;;;;2.00;1.83;;;10.80;99.90;;;;;;7401754;19;20336;-91
2022/01/02 21:30:41;;;;;;;2.22;1.80;;;10.80;99.90;;;;;;7403619;19;20644;-90
2022/01/02 21:36:05;;;;;;;3.15;2.00;;;10.80;99.90;;;;;;7412948;19;20348;-90
2022/01/02 21:38:31;;;;;;;3.85;1.85;;;10.80;99.90;;;;;;7420560;19;20357;-90
2022/01/02 21:40:58;;;;;;;2.80;1.75;;;10.80;99.90;;;;;;7421927;19;20344;-91
2022/01/02 21:43:27;;;;;;;5.03;2.00;;;10.80;99.90;;;;;;7423236;19;20375;-91
2022/01/02 21:45:52;;;;;;;1.75;1.60;;;10.80;99.90;;;;;;7419168;19;20333;-86
2022/01/02 21:48:20;;;;;;;2.00;1.80;;;10.80;99.90;;;;;;7416001;19;20344;-92
2022/01/02 21:50:47;;;;;;;1.70;1.60;;;10.80;99.90;;;;;;7420644;19;20317;-87
2022/01/02 21:53:13;;;;;;;3.00;1.92;;;10.80;99.90;;;;;;7420745;19;20372;-91
2022/01/02 21:55:43;;;;;;;1.90;1.57;;;10.80;99.90;;;;;;7399340;19;20383;-91
2022/01/02 21:58:10;;;;;;;2.22;1.60;;;10.70;99.90;;;;;;7420148;19;20345;-91
2022/01/02 22:00:36;;;;;;;1.65;1.55;;;10.70;99.90;;;;;;7423145;19;20337;-90
2022/01/02 22:03:08;;;;;;;1.95;1.60;;;10.90;99.90;;;;;;7422236;19;20365;-88
2022/01/02 22:05:38;;;;;;;1.45;1.35;;;10.80;99.90;;;;;;7419668;19;20348;-90
2022/01/02 22:08:04;;;;;;;1.60;1.50;;;10.70;99.90;;;;;;7423167;19;20340;-88
2022/01/02 22:10:31;;;;;;;2.38;1.48;;;10.70;99.90;;;;;;7420439;19;20332;-90
2022/01/02 22:13:02;;;;;;;1.55;1.45;;;10.70;99.90;;;;;;7394240;19;20333;-89
2022/01/02 22:15:30;;;;;;;2.38;1.92;;;10.60;99.90;;;;;;7397202;19;20356;-89
2022/01/02 22:17:56;;;;;;;1.80;1.70;;;10.60;99.90;;;;;;7399062;19;20496;-89
2022/01/02 22:20:22;;;;;;;2.35;1.70;;;10.50;99.90;;;;;;7419863;19;20312;-91
2022/01/02 22:22:47;;;;;;;2.27;1.80;;;10.50;99.90;;;;;;7421297;19;20337;-89
2022/01/02 22:25:21;;;;;;;1.85;1.75;;;10.50;99.90;;;;;;7397427;19;20316;-91
2022/01/02 22:27:47;;;;;;;4.28;1.80;;;10.50;99.90;;;;;;7420646;19;20347;-91
2022/01/02 22:30:15;;;;;;;2.00;1.80;;;10.50;99.90;;;;;;7416794;19;20368;-89
2022/01/02 22:32:42;;;;;;;3.00;1.80;;;10.40;99.90;;;;;;7423476;19;20344;-89
2022/01/02 22:35:11;;;;;;;1.70;1.60;;;10.40;99.90;;;;;;7399404;19;20328;-89
2022/01/02 22:37:37;;;;;;;2.10;1.90;;;10.40;99.90;;;;;;7421448;19;20349;-90
2022/01/02 22:40:04;;;;;;;2.10;1.90;;;10.40;99.90;;;;;;7396053;19;20400;-90
2022/01/02 22:42:31;;;;;;;3.35;2.00;;;10.50;99.90;;;;;;7421385;19;20312;-90
2022/01/02 22:45:02;;;;;;;2.15;1.85;;;10.50;99.90;;;;;;7417482;19;20328;-91
2022/01/02 22:47:41;;;;;;;1.88;1.77;;;10.40;99.90;;;;;;7422964;19;20343;-90
2022/01/02 22:50:09;;;;;;;1.85;1.67;;;10.50;99.90;;;;;;7421810;19;20348;-89
2022/01/02 22:52:35;;;;;;;2.10;1.70;;;10.50;99.90;;;;;;7404705;19;20360;-91
2022/01/02 22:55:03;;;;;;;3.10;1.80;;;10.50;99.90;;;;;;7420450;19;20887;-90
2022/01/02 22:57:30;;;;;;;1.88;1.77;;;10.50;99.90;;;;;;7421806;19;20715;-91
2022/01/02 22:59:56;;;;;;;2.15;1.90;;;10.50;99.90;;;;;;7398785;19;20332;-91
2022/01/02 23:02:22;;;;;;;2.10;1.90;;;10.40;99.90;;;;;;7421342;19;20388;-90
2022/01/02 23:07:50;;;;;;;1.90;1.80;;;10.40;99.90;;;;;;7402584;19;20329;-94
2022/01/02 23:10:16;;;;;;;2.05;1.60;;;10.40;99.90;;;;;;7376976;19;20371;-89
2022/01/02 23:12:44;;;;;;;2.10;1.80;;;10.40;99.90;;;;;;7413014;19;20329;-90
2022/01/02 23:15:09;;;;;;;2.20;1.73;;;10.20;99.90;;;;;;7420327;19;20336;-90
2022/01/02 23:17:36;;;;;;;2.80;1.80;;;10.30;99.90;;;;;;7421776;19;20343;-90
2022/01/02 23:20:03;;;;;;;2.05;1.80;;;10.20;99.90;;;;;;7399828;19;20326;-90
2022/01/02 23:22:31;;;;;;;2.90;1.88;;;10.20;99.90;;;;;;7402510;19;20344;-91
